createdAt,value
2022-07-31T00:01:24.728Z,8.10
2022-07-31T00:03:51.924Z,5.90
2022-07-31T00:06:19.526Z,6.10
2022-07-31T00:08:46.795Z,5.50
2022-07-31T00:11:13.943Z,6.60
2022-07-31T00:13:56.451Z,4.68
2022-07-31T00:16:25.636Z,7.07
2022-07-31T00:18:52.686Z,6.85
2022-07-31T00:21:19.966Z,6.40
2022-07-31T00:23:46.987Z,5.90
2022-07-31T00:26:14.127Z,5.53
2022-07-31T00:28:41.193Z,7.55
2022-07-31T00:31:08.182Z,5.85
2022-07-31T00:33:35.188Z,9.68
2022-07-31T00:36:02.229Z,5.22
2022-07-31T00:38:29.300Z,5.90
2022-07-31T00:40:56.870Z,6.18
2022-07-31T00:43:27.577Z,6.50
2022-07-31T00:45:59.516Z,7.13
2022-07-31T00:48:27.700Z,5.78
2022-07-31T00:50:56.391Z,7.13
2022-07-31T00:53:23.492Z,7.15
2022-07-31T00:55:51.274Z,7.35
2022-07-31T00:58:20.136Z,10.48
2022-07-31T01:00:47.613Z,11.55
2022-07-31T01:03:14.849Z,6.25
2022-07-31T01:05:42.001Z,8.57
2022-07-31T01:08:09.296Z,6.25
2022-07-31T01:10:42.106Z,7.07
2022-07-31T01:13:15.867Z,7.72
2022-07-31T01:15:44.358Z,5.75
2022-07-31T01:18:13.429Z,6.65
2022-07-31T01:20:44.824Z,8.35
2022-07-31T01:26:37.693Z,6.50
2022-07-31T01:29:21.271Z,8.68
2022-07-31T01:32:10.838Z,5.47
2022-07-31T01:35:00.949Z,5.95
2022-07-31T01:37:32.429Z,9.05
2022-07-31T01:40:33.688Z,7.38
2022-07-31T01:43:06.780Z,7.03
2022-07-31T01:45:36.724Z,6.45
2022-07-31T01:50:42.660Z,9.13
2022-07-31T01:57:06.120Z,11.68
2022-07-31T01:59:44.713Z,9.48
2022-07-31T02:02:22.813Z,8.00
2022-07-31T02:04:51.961Z,8.38
2022-07-31T02:07:20.609Z,8.73
2022-07-31T02:09:52.455Z,7.13
2022-07-31T02:12:31.886Z,8.43
2022-07-31T02:15:05.601Z,8.50
2022-07-31T02:17:34.745Z,8.50
2022-07-31T02:20:28.031Z,8.05
2022-07-31T02:22:57.360Z,9.68
2022-07-31T02:25:25.025Z,10.75
2022-07-31T02:27:54.310Z,9.70
2022-07-31T02:30:39.087Z,9.52
2022-07-31T02:33:16.712Z,12.05
2022-07-31T02:35:45.781Z,8.40
2022-07-31T02:38:23.045Z,9.60
2022-07-31T02:40:56.551Z,9.77
2022-07-31T02:43:26.897Z,10.48
2022-07-31T02:45:57.515Z,9.98
2022-07-31T02:48:26.307Z,12.50
2022-07-31T02:50:56.312Z,9.52
2022-07-31T02:53:23.692Z,10.10
2022-07-31T02:58:20.821Z,13.05
2022-07-31T03:00:48.088Z,10.02
2022-07-31T03:03:16.853Z,10.60
2022-07-31T03:05:44.446Z,13.50
2022-07-31T03:08:11.446Z,11.43
2022-07-31T03:10:42.099Z,9.80
2022-07-31T03:13:11.467Z,11.50
2022-07-31T03:15:40.585Z,9.13
2022-07-31T03:18:11.828Z,8.95
2022-07-31T03:20:42.992Z,8.90
2022-07-31T03:23:12.478Z,10.10
2022-07-31T03:25:50.817Z,13.65
2022-07-31T03:28:21.883Z,10.80
2022-07-31T03:30:55.240Z,11.18
2022-07-31T03:33:25.341Z,10.45
2022-07-31T03:35:53.380Z,10.07
2022-07-31T03:38:38.351Z,10.70
2022-07-31T03:41:08.791Z,12.02
2022-07-31T03:43:46.954Z,12.25
2022-07-31T03:46:19.514Z,10.40
2022-07-31T03:51:14.818Z,10.65
2022-07-31T03:53:43.185Z,11.00
2022-07-31T03:56:19.073Z,12.77
2022-07-31T03:58:46.156Z,10.38
2022-07-31T04:01:20.799Z,11.13
2022-07-31T04:03:57.129Z,11.88
2022-07-31T04:06:49.318Z,11.05
2022-07-31T04:09:19.102Z,10.35
2022-07-31T04:11:48.266Z,10.93
2022-07-31T04:14:15.598Z,12.93
2022-07-31T04:16:43.818Z,11.88
2022-07-31T04:19:10.918Z,12.13
2022-07-31T04:21:38.018Z,11.80
2022-07-31T04:24:05.818Z,10.98
2022-07-31T04:26:51.112Z,11.07
2022-07-31T04:29:18.682Z,11.10
2022-07-31T04:31:46.232Z,11.75
2022-07-31T04:34:21.527Z,10.95
2022-07-31T04:36:48.676Z,10.10
2022-07-31T04:39:15.914Z,10.57
2022-07-31T04:41:43.190Z,12.95
2022-07-31T04:44:10.635Z,11.38
2022-07-31T04:46:51.651Z,14.07
2022-07-31T04:49:19.150Z,11.18
2022-07-31T04:51:46.487Z,10.93
2022-07-31T04:54:14.380Z,10.73
2022-07-31T04:56:44.307Z,10.68
2022-07-31T04:59:14.114Z,11.45
2022-07-31T05:01:44.787Z,10.02
2022-07-31T05:04:14.001Z,10.18
2022-07-31T05:06:50.771Z,8.80
2022-07-31T05:09:23.571Z,10.45
2022-07-31T05:11:55.085Z,9.57
2022-07-31T05:14:22.713Z,8.93
2022-07-31T05:16:50.355Z,13.38
2022-07-31T05:19:18.412Z,9.70
2022-07-31T05:22:05.521Z,8.65
2022-07-31T05:24:43.170Z,8.60
2022-07-31T05:27:12.853Z,9.15
2022-07-31T05:29:42.099Z,10.75
2022-07-31T05:32:09.599Z,6.05
2022-07-31T05:34:37.561Z,6.65
2022-07-31T05:37:05.237Z,6.10
2022-07-31T05:39:35.492Z,6.68
2022-07-31T05:42:21.147Z,11.95
2022-07-31T05:44:56.819Z,5.72
2022-07-31T05:47:23.876Z,9.52
2022-07-31T05:50:08.289Z,6.55
2022-07-31T05:52:35.395Z,8.38
2022-07-31T05:55:28.290Z,7.60
2022-07-31T05:58:16.964Z,10.43
2022-07-31T06:00:46.187Z,8.82
2022-07-31T06:03:13.979Z,9.02
2022-07-31T06:06:06.916Z,9.07
2022-07-31T06:08:34.368Z,8.55
2022-07-31T06:11:02.031Z,6.13
2022-07-31T06:13:30.354Z,6.75
2022-07-31T06:16:03.284Z,7.53
2022-07-31T06:18:30.321Z,5.53
2022-07-31T06:20:57.389Z,7.03
2022-07-31T06:27:40.005Z,7.10
2022-07-31T06:30:09.226Z,4.13
2022-07-31T06:32:37.433Z,7.03
2022-07-31T06:35:06.527Z,6.50
2022-07-31T06:37:43.973Z,4.53
2022-07-31T06:40:11.884Z,4.32
2022-07-31T06:43:07.738Z,6.28
2022-07-31T06:45:53.060Z,4.05
2022-07-31T06:48:40.112Z,4.32
2022-07-31T06:51:30.356Z,5.32
2022-07-31T06:53:59.069Z,5.15
2022-07-31T06:56:27.051Z,6.97
2022-07-31T06:58:55.289Z,5.55
2022-07-31T07:01:22.605Z,5.15
2022-07-31T07:03:50.673Z,6.68
2022-07-31T07:06:17.953Z,3.92
2022-07-31T07:08:45.056Z,3.75
2022-07-31T07:11:15.464Z,3.58
2022-07-31T07:13:45.167Z,7.20
2022-07-31T07:16:16.207Z,3.50
2022-07-31T07:18:43.547Z,5.18
2022-07-31T07:21:10.942Z,3.95
2022-07-31T07:23:38.801Z,3.83
2022-07-31T07:26:21.552Z,4.72
2022-07-31T07:28:49.027Z,2.90
2022-07-31T07:31:16.180Z,3.42
2022-07-31T07:33:43.301Z,4.07
2022-07-31T07:36:24.587Z,4.93
2022-07-31T07:38:56.652Z,2.90
2022-07-31T07:41:25.275Z,5.65
2022-07-31T07:43:53.211Z,4.35
2022-07-31T07:46:23.596Z,2.60
2022-07-31T07:48:54.421Z,3.38
2022-07-31T07:51:59.998Z,3.15
2022-07-31T07:54:47.207Z,4.20
2022-07-31T07:57:52.353Z,3.63
2022-07-31T08:00:42.182Z,4.72
2022-07-31T08:03:49.538Z,4.25
2022-07-31T08:05:56.236Z,4.97
2022-07-31T08:08:23.222Z,3.33
2022-07-31T08:11:19.558Z,3.33
2022-07-31T08:14:00.430Z,3.50
2022-07-31T08:16:36.111Z,4.45
2022-07-31T08:19:03.477Z,5.13
2022-07-31T08:21:31.791Z,4.68
2022-07-31T08:23:58.794Z,3.38
2022-07-31T08:26:27.381Z,4.63
2022-07-31T08:28:56.036Z,3.17
2022-07-31T08:31:26.252Z,3.33
2022-07-31T08:34:10.918Z,4.28
2022-07-31T08:36:58.073Z,3.83
2022-07-31T08:39:25.149Z,4.13
2022-07-31T08:42:08.018Z,3.22
2022-07-31T08:44:39.949Z,3.53
2022-07-31T08:47:11.900Z,4.25
2022-07-31T08:49:45.134Z,4.55
2022-07-31T08:52:26.679Z,3.42
2022-07-31T08:55:06.748Z,3.45
2022-07-31T08:57:34.393Z,3.58
2022-07-31T09:00:05.103Z,2.70
2022-07-31T09:02:33.050Z,2.53
2022-07-31T09:05:16.913Z,2.53
2022-07-31T09:07:44.072Z,4.43
2022-07-31T09:10:25.195Z,3.38
2022-07-31T09:12:53.800Z,2.30
2022-07-31T09:15:27.911Z,2.33
2022-07-31T09:17:56.708Z,3.35
2022-07-31T09:20:29.305Z,2.20
2022-07-31T09:23:08.014Z,4.22
2022-07-31T09:25:39.061Z,3.47
2022-07-31T09:28:07.478Z,3.67
2022-07-31T09:30:35.840Z,3.28
2022-07-31T09:33:46.521Z,2.63
2022-07-31T09:36:25.881Z,3.53
2022-07-31T09:39:04.123Z,1.85
2022-07-31T09:42:02.041Z,3.05
2022-07-31T09:44:42.097Z,2.60
2022-07-31T09:47:30.481Z,3.13
2022-07-31T09:50:02.193Z,2.67
2022-07-31T09:52:31.362Z,4.50
2022-07-31T09:55:15.885Z,2.13
2022-07-31T09:57:57.190Z,3.72
2022-07-31T10:00:27.374Z,3.88
2022-07-31T10:02:56.628Z,3.03
2022-07-31T10:05:27.024Z,5.38
2022-07-31T10:08:00.678Z,2.63
2022-07-31T10:10:49.545Z,2.55
2022-07-31T10:13:49.593Z,3.85
2022-07-31T10:16:17.845Z,1.90
2022-07-31T10:18:57.348Z,2.45
2022-07-31T10:21:42.529Z,3.35
2022-07-31T10:24:25.997Z,2.70
2022-07-31T10:27:01.721Z,2.65
2022-07-31T10:29:39.367Z,2.13
2022-07-31T10:32:08.356Z,2.53
2022-07-31T10:34:39.743Z,2.05
2022-07-31T10:37:33.670Z,3.97
2022-07-31T10:40:49.217Z,3.53
2022-07-31T10:43:26.300Z,2.97
2022-07-31T10:46:09.088Z,2.90
2022-07-31T10:48:53.798Z,3.53
2022-07-31T10:51:53.605Z,4.25
2022-07-31T10:54:58.343Z,2.03
2022-07-31T10:57:56.181Z,2.08
2022-07-31T11:00:43.454Z,3.28
2022-07-31T11:03:23.799Z,1.92
2022-07-31T11:06:16.216Z,4.05
2022-07-31T11:08:55.439Z,3.20
2022-07-31T11:11:55.126Z,2.33
2022-07-31T11:14:46.676Z,2.55
2022-07-31T11:18:23.577Z,6.07
2022-07-31T11:20:40.817Z,2.03
2022-07-31T11:23:08.633Z,2.63
2022-07-31T11:25:37.575Z,2.45
2022-07-31T11:28:21.520Z,3.80
2022-07-31T11:30:50.160Z,2.08
2022-07-31T11:33:41.958Z,4.20
2022-07-31T11:36:18.230Z,4.88
2022-07-31T11:39:18.653Z,4.32
2022-07-31T11:41:53.790Z,2.42
2022-07-31T11:44:21.908Z,2.72
2022-07-31T11:46:51.172Z,1.85
2022-07-31T11:52:30.208Z,2.45
2022-07-31T11:55:11.060Z,1.83
2022-07-31T11:57:51.565Z,1.90
2022-07-31T12:00:27.283Z,4.20
2022-07-31T12:02:58.007Z,2.78
2022-07-31T12:05:39.043Z,1.90
2022-07-31T12:08:08.048Z,2.25
2022-07-31T12:10:35.634Z,3.17
2022-07-31T12:13:03.208Z,1.60
2022-07-31T12:15:30.290Z,4.68
2022-07-31T12:18:05.502Z,2.95
2022-07-31T12:20:37.204Z,1.85
2022-07-31T12:23:06.105Z,2.90
2022-07-31T12:25:41.610Z,2.20
2022-07-31T12:28:09.575Z,4.03
2022-07-31T12:31:40.005Z,4.03
2022-07-31T12:34:07.046Z,4.03
2022-07-31T12:36:34.109Z,2.10
2022-07-31T12:39:02.352Z,3.17
2022-07-31T12:41:30.077Z,2.67
2022-07-31T12:44:10.046Z,4.50
2022-07-31T12:46:46.601Z,3.67
2022-07-31T12:49:14.410Z,2.10
2022-07-31T12:51:44.901Z,3.15
2022-07-31T12:54:17.375Z,3.00
2022-07-31T12:56:46.718Z,3.95
2022-07-31T12:59:36.958Z,2.72
2022-07-31T13:02:05.317Z,5.10
2022-07-31T13:04:38.824Z,3.15
2022-07-31T13:07:06.535Z,3.42
2022-07-31T13:09:33.902Z,3.47
2022-07-31T13:12:01.374Z,3.97
2022-07-31T13:14:28.943Z,2.72
2022-07-31T13:17:48.120Z,4.68
2022-07-31T13:20:17.778Z,1.60
2022-07-31T13:22:44.832Z,3.78
2022-07-31T13:25:11.985Z,3.72
2022-07-31T13:27:41.488Z,2.22
2022-07-31T13:30:11.151Z,2.50
2022-07-31T13:32:38.132Z,2.75
2022-07-31T13:35:24.097Z,3.22
2022-07-31T13:37:53.992Z,2.70
2022-07-31T13:40:58.599Z,3.00
2022-07-31T13:43:25.679Z,4.13
2022-07-31T13:45:52.598Z,4.10
2022-07-31T13:48:19.693Z,2.10
2022-07-31T13:50:47.770Z,3.38
2022-07-31T13:53:14.756Z,3.20
2022-07-31T13:55:41.903Z,1.73
2022-07-31T13:58:08.927Z,3.00
2022-07-31T14:00:36.819Z,3.00
2022-07-31T14:03:04.012Z,2.67
2022-07-31T14:05:32.645Z,2.40
2022-07-31T14:08:30.667Z,2.10
2022-07-31T14:10:56.149Z,2.50
2022-07-31T14:13:23.367Z,2.70
2022-07-31T14:15:51.063Z,2.10
2022-07-31T14:18:18.964Z,6.95
2022-07-31T14:20:46.584Z,2.63
2022-07-31T14:23:13.941Z,5.22
2022-07-31T14:25:42.199Z,2.25
2022-07-31T14:28:10.110Z,2.20
2022-07-31T14:30:37.364Z,3.65
2022-07-31T14:33:05.220Z,2.13
2022-07-31T14:35:33.756Z,2.15
2022-07-31T14:38:04.125Z,2.95
2022-07-31T14:40:31.627Z,3.42
2022-07-31T14:42:59.273Z,2.13
2022-07-31T14:45:26.454Z,2.58
2022-07-31T14:47:55.249Z,3.97
2022-07-31T14:50:23.349Z,3.78
2022-07-31T14:52:50.629Z,3.70
2022-07-31T14:55:19.379Z,4.15
2022-07-31T14:57:46.475Z,2.20
2022-07-31T15:00:14.079Z,3.75
2022-07-31T15:02:45.134Z,2.42
2022-07-31T15:06:51.060Z,2.53
2022-07-31T15:08:00.382Z,4.22
2022-07-31T15:10:29.880Z,2.90
2022-07-31T15:12:57.002Z,3.10
2022-07-31T15:15:24.050Z,4.75
2022-07-31T15:17:51.116Z,3.30
2022-07-31T15:20:18.364Z,2.38
2022-07-31T15:22:45.408Z,1.75
2022-07-31T15:25:12.687Z,2.92
2022-07-31T15:27:39.739Z,3.05
2022-07-31T15:30:08.039Z,2.55
2022-07-31T15:32:39.585Z,4.00
2022-07-31T15:35:09.553Z,7.50
2022-07-31T15:37:38.320Z,2.30
2022-07-31T15:40:07.284Z,3.00
2022-07-31T15:42:40.760Z,3.03
2022-07-31T15:45:15.342Z,4.28
2022-07-31T15:47:43.267Z,3.25
2022-07-31T15:50:12.819Z,2.13
2022-07-31T15:55:08.143Z,2.95
2022-07-31T15:57:35.156Z,2.40
2022-07-31T16:00:02.335Z,2.25
2022-07-31T16:02:38.499Z,3.45
2022-07-31T16:05:17.258Z,4.55
2022-07-31T16:08:28.541Z,2.65
2022-07-31T16:10:36.209Z,3.65
2022-07-31T16:13:03.518Z,4.25
2022-07-31T16:15:30.668Z,2.45
2022-07-31T16:17:58.029Z,2.60
2022-07-31T16:20:26.238Z,4.57
2022-07-31T16:23:03.278Z,2.53
2022-07-31T16:25:34.746Z,3.67
2022-07-31T16:28:03.943Z,3.78
2022-07-31T16:30:31.366Z,4.53
2022-07-31T16:32:58.374Z,3.92
2022-07-31T16:35:26.422Z,2.58
2022-07-31T16:37:54.792Z,3.35
2022-07-31T16:40:28.790Z,5.35
2022-07-31T16:43:49.561Z,2.40
2022-07-31T16:46:11.412Z,3.08
2022-07-31T16:48:38.553Z,2.15
2022-07-31T16:51:06.600Z,5.25
2022-07-31T16:54:11.640Z,3.55
2022-07-31T16:56:20.649Z,3.85
2022-07-31T16:58:51.317Z,3.15
2022-07-31T17:01:57.855Z,5.55
2022-07-31T17:04:11.459Z,3.17
2022-07-31T17:06:38.558Z,2.80
2022-07-31T17:09:17.309Z,1.98
2022-07-31T17:14:17.092Z,3.10
2022-07-31T17:16:47.663Z,14.53
2022-07-31T17:19:36.026Z,4.03
2022-07-31T17:22:07.378Z,2.63
2022-07-31T17:24:37.274Z,3.15
2022-07-31T17:27:09.830Z,4.15
2022-07-31T17:29:38.166Z,4.57
2022-07-31T17:32:06.165Z,2.90
2022-07-31T17:34:35.252Z,3.97
2022-07-31T17:37:02.424Z,4.30
2022-07-31T17:39:31.203Z,6.07
2022-07-31T17:41:59.239Z,3.57
2022-07-31T17:44:26.359Z,7.03
2022-07-31T17:46:54.682Z,4.20
2022-07-31T17:49:21.835Z,2.40
2022-07-31T17:51:59.310Z,12.18
2022-07-31T17:54:31.087Z,4.45
2022-07-31T17:56:58.776Z,17.73
2022-07-31T17:59:26.538Z,16.52
2022-07-31T18:01:59.734Z,6.22
2022-07-31T18:04:28.550Z,2.90
2022-07-31T18:06:56.095Z,26.77
2022-07-31T18:09:24.536Z,6.70
2022-07-31T18:11:52.595Z,4.78
2022-07-31T18:14:20.538Z,3.22
2022-07-31T18:16:51.693Z,3.80
2022-07-31T18:19:18.971Z,3.78
2022-07-31T18:21:45.954Z,4.72
2022-07-31T18:24:12.987Z,3.53
2022-07-31T18:26:39.985Z,2.80
2022-07-31T18:29:06.998Z,2.22
2022-07-31T18:31:35.895Z,2.55
2022-07-31T18:34:06.311Z,2.22
2022-07-31T18:36:34.192Z,3.45
2022-07-31T18:39:08.164Z,2.45
2022-07-31T18:41:35.853Z,4.40
2022-07-31T18:44:06.852Z,2.78
2022-07-31T18:46:33.972Z,4.25
2022-07-31T18:49:01.080Z,1.90
2022-07-31T18:51:29.348Z,2.33
2022-07-31T18:53:57.832Z,2.75
2022-07-31T18:56:26.243Z,3.10
2022-07-31T18:58:54.161Z,5.28
2022-07-31T19:01:21.782Z,2.40
2022-07-31T19:03:48.951Z,3.55
2022-07-31T19:06:16.800Z,2.03
2022-07-31T19:08:43.957Z,3.00
2022-07-31T19:11:12.269Z,3.17
2022-07-31T19:13:39.381Z,2.50
2022-07-31T19:16:06.818Z,3.95
2022-07-31T19:18:34.376Z,2.78
2022-07-31T19:21:16.742Z,3.95
2022-07-31T19:23:49.429Z,4.43
2022-07-31T19:26:16.594Z,2.97
2022-07-31T19:28:43.689Z,2.17
2022-07-31T19:31:11.772Z,3.65
2022-07-31T19:33:39.403Z,2.08
2022-07-31T19:36:06.978Z,3.85
2022-07-31T19:38:36.492Z,3.08
2022-07-31T19:41:04.391Z,3.95
2022-07-31T19:43:33.427Z,4.15
2022-07-31T19:46:11.648Z,4.10
2022-07-31T19:48:44.106Z,2.80
2022-07-31T19:51:12.411Z,2.42
2022-07-31T19:53:40.346Z,4.05
2022-07-31T19:56:07.922Z,2.40
2022-07-31T19:58:36.268Z,2.28
2022-07-31T20:01:08.238Z,2.15
2022-07-31T20:03:36.103Z,5.30
2022-07-31T20:06:04.314Z,5.53
2022-07-31T20:08:32.886Z,2.47
2022-07-31T20:11:03.483Z,2.53
2022-07-31T20:13:34.915Z,2.33
2022-07-31T20:16:02.110Z,2.38
2022-07-31T20:18:29.816Z,4.50
2022-07-31T20:21:07.384Z,3.88
2022-07-31T20:23:41.686Z,2.13
2022-07-31T20:26:12.126Z,3.67
2022-07-31T20:28:40.476Z,2.97
2022-07-31T20:31:08.469Z,4.15
2022-07-31T20:33:56.520Z,4.07
2022-07-31T20:36:26.026Z,6.57
2022-07-31T20:38:53.125Z,4.35
2022-07-31T20:41:20.105Z,2.95
2022-07-31T20:43:47.181Z,3.47
2022-07-31T20:46:15.864Z,3.10
2022-07-31T20:49:19.347Z,4.43
2022-07-31T20:51:46.873Z,2.83
2022-07-31T20:54:13.905Z,2.65
2022-07-31T20:56:42.596Z,1.88
2022-07-31T20:59:09.951Z,5.65
2022-07-31T21:01:42.405Z,3.20
2022-07-31T21:04:09.856Z,2.10
2022-07-31T21:06:37.788Z,3.85
2022-07-31T21:09:07.802Z,2.38
2022-07-31T21:11:34.843Z,2.95
2022-07-31T21:14:03.030Z,3.38
2022-07-31T21:16:30.171Z,1.60
2022-07-31T21:18:57.232Z,2.78
2022-07-31T21:21:24.217Z,2.35
2022-07-31T21:23:53.427Z,2.08
2022-07-31T21:26:21.587Z,2.47
2022-07-31T21:28:51.324Z,2.35
2022-07-31T21:33:45.714Z,3.55
2022-07-31T21:36:14.603Z,2.83
2022-07-31T21:38:42.984Z,6.90
2022-07-31T21:41:10.273Z,1.67
2022-07-31T21:43:43.408Z,1.90
2022-07-31T21:46:25.447Z,1.85
2022-07-31T21:48:52.907Z,1.95
2022-07-31T21:51:20.207Z,3.85
2022-07-31T21:53:47.288Z,1.88
2022-07-31T21:56:18.090Z,2.70
2022-07-31T21:58:45.279Z,2.25
2022-07-31T22:01:13.718Z,2.13
2022-07-31T22:03:42.093Z,2.97
2022-07-31T22:06:27.567Z,4.35
2022-07-31T22:08:54.567Z,4.10
2022-07-31T22:11:21.727Z,3.45
2022-07-31T22:13:48.677Z,1.88
2022-07-31T22:16:15.572Z,2.80
2022-07-31T22:18:42.920Z,3.00
2022-07-31T22:21:10.563Z,3.78
2022-07-31T22:23:38.031Z,2.90
2022-07-31T22:26:05.304Z,3.05
2022-07-31T22:28:32.566Z,2.75
2022-07-31T22:30:59.896Z,1.75
2022-07-31T22:33:27.011Z,2.15
2022-07-31T22:35:59.442Z,6.10
2022-07-31T22:38:29.154Z,2.70
2022-07-31T22:40:56.609Z,3.40
2022-07-31T22:44:12.996Z,2.05
2022-07-31T22:46:12.756Z,3.58
2022-07-31T22:48:41.081Z,2.67
2022-07-31T22:51:12.848Z,2.85
2022-07-31T22:53:43.092Z,3.08
2022-07-31T22:56:10.260Z,4.80
2022-07-31T22:58:37.330Z,2.15
2022-07-31T23:01:04.695Z,4.75
2022-07-31T23:03:31.682Z,2.90
2022-07-31T23:06:02.396Z,4.40
2022-07-31T23:08:49.830Z,3.67
2022-07-31T23:11:20.920Z,2.95
2022-07-31T23:13:47.941Z,2.28
2022-07-31T23:16:14.943Z,3.60
2022-07-31T23:18:42.024Z,4.03
2022-07-31T23:21:09.021Z,2.20
2022-07-31T23:23:37.700Z,3.35
2022-07-31T23:26:04.792Z,3.50
2022-07-31T23:28:31.897Z,2.20
2022-07-31T23:30:58.954Z,2.25
2022-07-31T23:33:26.004Z,3.92
2022-07-31T23:35:53.080Z,2.78
2022-07-31T23:38:37.699Z,4.43
2022-07-31T23:41:04.972Z,3.25
2022-07-31T23:43:32.020Z,4.35
2022-07-31T23:45:59.077Z,2.25
2022-07-31T23:48:29.244Z,3.28
2022-07-31T23:53:24.401Z,2.40
2022-07-31T23:55:51.461Z,2.78
2022-07-31T23:58:18.517Z,4.97
